Time;durP1;ratioP1;P1;durP2;ratioP2;P2;SDS_P1;SDS_P2;PMS_P1;PMS_P2;Temp;Humidity;BMP_temperature;BMP_pressure;BME280_temperature;BME280_humidity;BME280_pressure;Samples;Min_cycle;Max_cycle;Signal;HPM_P1;HPM_P2
2024/03/21 00:02:20;;;;;;;32.38;17.70;;;128.90;2252.80;;;;;;5012254;28;20022;-76
2024/03/21 00:04:46;;;;;;;30.08;18.10;;;128.90;2252.80;;;;;;5011843;28;20533;-69
2024/03/21 00:07:12;;;;;;;28.52;17.48;;;128.90;2252.80;;;;;;5011985;28;20025;-69
2024/03/21 00:09:39;;;;;;;24.63;16.00;;;128.90;2252.80;;;;;;5012134;28;20400;-69
2024/03/21 00:12:06;;;;;;;52.00;33.15;;;128.90;2252.80;;;;;;5011929;28;20081;-69
2024/03/21 00:14:32;;;;;;;34.65;21.27;;;128.90;2252.80;;;;;;5011979;28;20388;-70
2024/03/21 00:16:58;;;;;;;48.92;28.80;;;128.90;2252.80;;;;;;5011985;28;20037;-69
2024/03/21 00:19:24;;;;;;;29.98;17.70;;;128.70;2252.80;;;;;;4994526;28;20045;-69
2024/03/21 00:21:52;;;;;;;37.70;22.75;;;128.70;2252.80;;;;;;5012207;28;20388;-69
2024/03/21 00:24:20;;;;;;;31.70;19.92;;;128.70;2252.80;;;;;;5011936;28;20088;-69
2024/03/21 00:26:46;;;;;;;33.50;18.15;;;128.50;2252.80;;;;;;5011682;28;20080;-69
2024/03/21 00:29:12;;;;;;;25.10;15.93;;;128.40;2252.80;;;;;;5010558;28;20082;-73
2024/03/21 00:31:39;;;;;;;33.38;20.55;;;128.40;2252.80;;;;;;5011733;28;20376;-70
2024/03/21 00:34:06;;;;;;;25.02;15.95;;;128.40;2252.80;;;;;;5011697;28;20034;-69
2024/03/21 00:36:32;;;;;;;68.60;56.67;;;128.40;2252.80;;;;;;5011764;28;20064;-70
2024/03/21 00:38:58;;;;;;;26.02;18.35;;;128.40;2252.80;;;;;;5011194;28;20041;-69
2024/03/21 00:41:24;;;;;;;37.65;20.05;;;128.50;2252.80;;;;;;5011840;28;20060;-70
2024/03/21 00:43:50;;;;;;;34.15;21.27;;;128.50;2252.80;;;;;;5011650;28;20491;-69
2024/03/21 00:46:16;;;;;;;36.45;20.13;;;128.70;2252.80;;;;;;5011204;28;20121;-69
2024/03/21 00:48:42;;;;;;;35.10;21.67;;;128.70;2252.80;;;;;;5011348;28;20022;-70
2024/03/21 00:51:09;;;;;;;45.85;29.55;;;128.50;2252.80;;;;;;5011042;28;20040;-69
2024/03/21 00:53:35;;;;;;;34.55;21.33;;;128.50;2252.80;;;;;;5011219;28;20014;-69
2024/03/21 00:56:00;;;;;;;46.17;26.60;;;128.30;2252.80;;;;;;5011410;28;20104;-69
2024/03/21 00:58:26;;;;;;;27.73;15.10;;;128.30;2252.80;;;;;;5011088;28;20441;-69
2024/03/21 01:00:52;;;;;;;21.67;13.50;;;128.30;2252.80;;;;;;5010183;28;20045;-69
2024/03/21 01:03:18;;;;;;;43.20;21.98;;;128.20;2252.80;;;;;;5010797;28;20026;-69
2024/03/21 01:05:51;;;;;;;25.30;13.18;;;128.20;2252.80;;;;;;5011472;28;20026;-69
2024/03/21 01:08:20;;;;;;;31.90;17.80;;;128.20;2252.80;;;;;;5010869;28;20040;-69
2024/03/21 01:10:52;;;;;;;28.85;15.98;;;128.10;2252.80;;;;;;5010963;28;20255;-69
2024/03/21 01:13:18;;;;;;;30.00;17.70;;;128.00;2252.80;;;;;;5010896;28;20476;-73
2024/03/21 01:15:45;;;;;;;54.47;27.70;;;128.10;2252.80;;;;;;5010640;28;20061;-69
2024/03/21 01:18:11;;;;;;;129.45;64.68;;;128.00;2252.80;;;;;;5010882;28;20032;-69
2024/03/21 01:20:40;;;;;;;36.60;21.73;;;103.30;2227.20;;;;;;5010774;28;20041;-78
2024/03/21 01:23:07;;;;;;;36.63;16.88;;;103.30;2227.20;;;;;;5010833;28;20607;-69
2024/03/21 01:25:33;;;;;;;42.20;24.67;;;103.20;2227.20;;;;;;5010759;28;20036;-69
2024/03/21 01:28:01;;;;;;;20.70;14.30;;;103.10;2227.20;;;;;;5010430;28;20018;-69
2024/03/21 01:30:30;;;;;;;19.83;12.65;;;103.10;2227.20;;;;;;5010223;28;20084;-69
2024/03/21 01:32:57;;;;;;;23.05;14.63;;;103.10;2227.20;;;;;;4998227;28;20022;-69
2024/03/21 01:35:23;;;;;;;23.83;13.77;;;103.20;2227.20;;;;;;5010712;28;20034;-69
2024/03/21 01:37:48;;;;;;;23.20;13.30;;;103.20;2227.20;;;;;;5010497;28;20540;-69
2024/03/21 01:40:14;;;;;;;28.17;15.02;;;103.10;2227.20;;;;;;5010008;28;20034;-69
2024/03/21 01:42:40;;;;;;;28.08;17.58;;;103.10;2227.20;;;;;;5010485;28;20045;-70
2024/03/21 01:45:06;;;;;;;29.33;20.30;;;103.10;2227.20;;;;;;5009957;28;20096;-69
2024/03/21 01:47:34;;;;;;;29.48;18.85;;;103.10;2227.20;;;;;;5010668;28;20026;-73
2024/03/21 01:50:00;;;;;;;41.63;24.63;;;103.00;2227.20;;;;;;5010208;28;20030;-69
2024/03/21 01:52:29;;;;;;;28.33;17.88;;;103.00;2227.20;;;;;;5010374;28;20399;-70
2024/03/21 01:54:56;;;;;;;27.70;15.98;;;103.00;2227.20;;;;;;5009795;28;20064;-69
2024/03/21 01:57:24;;;;;;;21.55;14.93;;;103.00;2227.20;;;;;;5010435;28;20079;-71
2024/03/21 01:59:52;;;;;;;32.88;15.18;;;103.00;2227.20;;;;;;5010013;28;20034;-68
2024/03/21 02:02:18;;;;;;;19.17;11.82;;;103.00;2227.20;;;;;;5009917;28;20021;-68
2024/03/21 02:04:44;;;;;;;26.75;15.13;;;103.00;2227.20;;;;;;5009922;28;20034;-69
2024/03/21 02:07:14;;;;;;;22.73;15.38;;;102.90;2227.20;;;;;;5010443;28;20014;-67
2024/03/21 02:09:40;;;;;;;26.27;14.75;;;102.90;2227.20;;;;;;5009812;28;20022;-67
2024/03/21 02:12:08;;;;;;;21.70;14.73;;;102.90;2227.20;;;;;;5009887;28;20498;-67
2024/03/21 02:14:38;;;;;;;20.25;13.45;;;103.00;2227.20;;;;;;5009546;28;20057;-67
2024/03/21 02:17:04;;;;;;;22.70;14.18;;;103.00;2227.20;;;;;;5009710;28;20022;-67
2024/03/21 02:19:31;;;;;;;21.80;13.32;;;103.00;2227.20;;;;;;5009499;28;20084;-67
2024/03/21 02:24:41;;;;;;;25.65;13.20;;;103.10;2227.20;;;;;;5009851;28;20111;-73
2024/03/21 02:27:07;;;;;;;23.95;13.65;;;103.10;2227.20;;;;;;5009498;28;20484;-67
2024/03/21 02:29:33;;;;;;;22.15;13.85;;;103.10;2227.20;;;;;;5009577;28;20046;-66
2024/03/21 02:31:59;;;;;;;27.92;16.55;;;103.10;2227.20;;;;;;5009479;28;20036;-67
2024/03/21 02:34:25;;;;;;;24.70;16.20;;;103.10;2227.20;;;;;;5009431;28;20114;-67
2024/03/21 02:36:51;;;;;;;22.30;13.05;;;103.10;2227.20;;;;;;5009796;28;20053;-67
2024/03/21 02:39:17;;;;;;;23.00;12.45;;;103.00;2227.20;;;;;;5009040;28;20041;-68
2024/03/21 02:41:43;;;;;;;20.10;12.00;;;103.00;2227.20;;;;;;5009407;28;20025;-68
2024/03/21 02:44:08;;;;;;;18.20;10.48;;;103.00;2227.20;;;;;;5009367;28;20056;-67
2024/03/21 02:46:35;;;;;;;19.33;12.98;;;102.90;2227.20;;;;;;5009524;28;20029;-67
2024/03/21 02:49:01;;;;;;;19.67;10.93;;;102.90;2227.20;;;;;;5009572;28;20387;-65
2024/03/21 02:51:26;;;;;;;18.25;9.90;;;103.00;2227.20;;;;;;5008643;28;20022;-67
2024/03/21 02:53:52;;;;;;;24.38;14.35;;;103.00;2227.20;;;;;;5009100;28;20032;-68
2024/03/21 02:56:18;;;;;;;27.67;14.57;;;103.00;2227.20;;;;;;5009178;28;20037;-67
2024/03/21 02:58:44;;;;;;;19.75;11.18;;;103.00;2227.20;;;;;;5009648;28;20049;-67
2024/03/21 03:01:10;;;;;;;28.63;14.85;;;103.00;2227.20;;;;;;5009089;28;20065;-69
2024/03/21 03:03:36;;;;;;;28.42;14.38;;;103.00;2227.20;;;;;;5009271;28;20102;-67
2024/03/21 03:06:02;;;;;;;23.23;17.92;;;103.00;2227.20;;;;;;5009296;28;20061;-67
2024/03/21 03:08:28;;;;;;;19.90;13.25;;;103.00;2227.20;;;;;;5009085;28;20379;-67
2024/03/21 03:10:54;;;;;;;60.25;29.83;;;103.00;2227.20;;;;;;5009295;28;20026;-67
2024/03/21 03:13:19;;;;;;;103.05;51.67;;;102.90;2227.20;;;;;;5009410;28;20204;-67
2024/03/21 03:15:45;;;;;;;65.60;36.00;;;103.00;2227.20;;;;;;5008995;28;20025;-68
2024/03/21 03:18:12;;;;;;;28.45;13.00;;;103.10;2227.20;;;;;;5009218;28;20037;-67
2024/03/21 03:20:38;;;;;;;26.30;14.70;;;103.10;2227.20;;;;;;5008969;28;20125;-67
2024/03/21 03:23:04;;;;;;;37.85;17.55;;;103.10;2227.20;;;;;;5008877;28;20097;-67
2024/03/21 03:25:30;;;;;;;45.38;23.17;;;103.00;2227.20;;;;;;5009123;28;20030;-67
2024/03/21 03:27:55;;;;;;;22.63;14.43;;;103.00;2227.20;;;;;;5008820;28;20018;-69
2024/03/21 03:30:21;;;;;;;19.25;9.68;;;102.90;2227.20;;;;;;5008806;28;20054;-75
2024/03/21 03:32:47;;;;;;;20.42;12.00;;;102.90;2227.20;;;;;;5008822;28;20029;-67
2024/03/21 03:35:40;;;;;;;23.30;12.48;;;102.90;2227.20;;;;;;5009177;28;20420;-73
2024/03/21 03:38:08;;;;;;;19.85;10.55;;;102.90;2227.20;;;;;;4999001;28;20018;-69
2024/03/21 03:40:35;;;;;;;16.40;10.63;;;102.80;2227.20;;;;;;5008670;28;20045;-68
2024/03/21 03:43:00;;;;;;;20.02;12.07;;;102.80;2227.20;;;;;;5009220;28;20475;-67
2024/03/21 03:45:26;;;;;;;20.08;11.15;;;102.80;2227.20;;;;;;5008745;28;20022;-72
2024/03/21 03:47:52;;;;;;;26.38;17.23;;;102.80;2227.20;;;;;;5009241;28;20029;-67
2024/03/21 03:50:19;;;;;;;22.52;10.60;;;102.90;2227.20;;;;;;5008394;28;20384;-67
2024/03/21 03:52:45;;;;;;;15.13;9.25;;;103.00;2227.20;;;;;;5008983;28;20022;-67
2024/03/21 03:55:11;;;;;;;23.58;12.35;;;103.10;2227.20;;;;;;5008375;28;20454;-67
2024/03/21 03:57:37;;;;;;;17.42;11.43;;;103.10;2227.20;;;;;;5008905;28;20105;-67
2024/03/21 04:00:04;;;;;;;23.58;14.25;;;103.10;2227.20;;;;;;5008815;28;20443;-67
2024/03/21 04:02:31;;;;;;;21.73;13.63;;;103.10;2227.20;;;;;;5009421;28;20105;-67
2024/03/21 04:04:57;;;;;;;17.42;11.68;;;103.20;2227.20;;;;;;5011368;28;20475;-67
2024/03/21 04:07:23;;;;;;;18.20;11.45;;;103.20;2227.20;;;;;;5012478;28;20033;-67
2024/03/21 04:09:49;;;;;;;16.42;10.20;;;103.20;2227.20;;;;;;5012164;28;20104;-68
2024/03/21 04:12:15;;;;;;;14.13;6.78;;;103.20;2227.20;;;;;;5012393;28;20528;-67
2024/03/21 04:14:41;;;;;;;14.00;7.57;;;103.20;2227.20;;;;;;5011964;28;20046;-68
2024/03/21 04:17:10;;;;;;;14.60;8.05;;;103.20;2227.20;;;;;;5012294;28;20116;-68
2024/03/21 04:19:36;;;;;;;15.13;8.63;;;103.00;2227.20;;;;;;5011807;28;20025;-67
2024/03/21 04:22:02;;;;;;;12.88;7.82;;;103.10;2227.20;;;;;;5012047;28;20484;-68
2024/03/21 04:24:27;;;;;;;18.45;10.75;;;103.00;2227.20;;;;;;5011569;28;20033;-73
2024/03/21 04:26:53;;;;;;;18.17;9.90;;;102.90;2227.20;;;;;;5011924;28;20488;-67
2024/03/21 04:29:19;;;;;;;14.15;10.32;;;102.90;2227.20;;;;;;5011832;28;20492;-67
2024/03/21 04:31:45;;;;;;;12.77;7.63;;;102.90;2227.20;;;;;;5011564;28;20096;-68
2024/03/21 04:34:14;;;;;;;15.70;10.07;;;102.80;2227.20;;;;;;5011597;28;20053;-68
2024/03/21 04:36:40;;;;;;;11.88;7.63;;;102.80;2227.20;;;;;;5012267;28;20456;-67
2024/03/21 04:39:06;;;;;;;14.55;7.70;;;102.90;2227.20;;;;;;5011117;28;20036;-67
2024/03/21 04:41:32;;;;;;;17.00;7.95;;;102.80;2227.20;;;;;;5011811;28;20040;-67
2024/03/21 04:43:57;;;;;;;16.40;9.30;;;102.80;2227.20;;;;;;5010914;28;20026;-67
2024/03/21 04:46:23;;;;;;;15.43;8.57;;;102.90;2227.20;;;;;;5011708;28;20065;-67
2024/03/21 04:48:49;;;;;;;11.90;7.65;;;102.90;2227.20;;;;;;5011779;28;20073;-68
2024/03/21 04:51:15;;;;;;;13.65;7.43;;;102.90;2227.20;;;;;;5011368;28;20384;-68
2024/03/21 04:53:41;;;;;;;16.73;8.93;;;103.00;2227.20;;;;;;5011242;28;20018;-68
2024/03/21 04:56:06;;;;;;;15.13;7.75;;;103.00;2227.20;;;;;;5011297;28;20057;-67
2024/03/21 04:58:32;;;;;;;15.73;8.95;;;102.90;2227.20;;;;;;5011342;28;20345;-67
2024/03/21 05:00:58;;;;;;;23.75;20.52;;;102.90;2227.20;;;;;;5010833;28;20038;-67
2024/03/21 05:03:24;;;;;;;13.73;9.40;;;103.00;2227.20;;;;;;5011383;28;20026;-67
2024/03/21 05:05:50;;;;;;;12.20;8.02;;;103.00;2227.20;;;;;;5011124;28;20030;-67
2024/03/21 05:08:16;;;;;;;12.63;8.02;;;103.10;2227.20;;;;;;5010532;28;20026;-67
2024/03/21 05:10:42;;;;;;;18.17;9.13;;;103.10;2227.20;;;;;;5010385;28;20034;-77
2024/03/21 05:13:08;;;;;;;30.30;15.93;;;103.20;2227.20;;;;;;5010246;28;20026;-79
2024/03/21 05:15:34;;;;;;;15.75;8.85;;;103.20;2227.20;;;;;;5009933;28;20154;-79
2024/03/21 05:17:59;;;;;;;14.02;7.93;;;103.30;2227.20;;;;;;5010501;28;20391;-70
2024/03/21 05:20:27;;;;;;;11.75;7.40;;;103.30;2227.20;;;;;;5010092;28;20030;-74
2024/03/21 05:22:53;;;;;;;20.55;14.48;;;103.30;2227.20;;;;;;5010159;28;20073;-69
2024/03/21 05:25:19;;;;;;;17.80;9.75;;;128.00;2252.80;;;;;;5009714;28;20021;-70
2024/03/21 05:27:45;;;;;;;17.08;11.73;;;128.20;2252.80;;;;;;5010140;28;20033;-69
2024/03/21 05:30:11;;;;;;;15.40;12.63;;;128.30;2252.80;;;;;;5009830;28;20432;-70
2024/03/21 05:32:37;;;;;;;30.25;17.45;;;128.40;2252.80;;;;;;5009768;28;20056;-69
2024/03/21 05:35:03;;;;;;;16.02;9.20;;;128.40;2252.80;;;;;;4992530;28;20073;-69
2024/03/21 05:37:28;;;;;;;20.88;11.05;;;128.60;2252.80;;;;;;5011058;28;20045;-69
2024/03/21 05:39:54;;;;;;;17.38;8.95;;;128.60;2252.80;;;;;;5010133;28;20488;-68
2024/03/21 05:42:20;;;;;;;18.10;8.45;;;128.80;2252.80;;;;;;5011370;28;20026;-69
2024/03/21 05:44:46;;;;;;;9.52;6.22;;;128.90;2252.80;;;;;;5010250;28;20061;-70
2024/03/21 05:47:23;;;;;;;12.50;6.50;;;153.60;2252.80;;;;;;5010734;28;20021;-69
2024/03/21 05:49:49;;;;;;;10.82;6.78;;;153.80;2252.80;;;;;;5010604;28;20462;-70
2024/03/21 05:52:16;;;;;;;10.27;6.15;;;154.00;2252.80;;;;;;5010386;28;20108;-70
2024/03/21 05:54:47;;;;;;;14.02;6.82;;;179.90;2252.80;;;;;;5010296;28;20064;-70
2024/03/21 05:57:13;;;;;;;10.40;5.82;;;230.40;2252.80;;;;;;5011569;28;20028;-75
2024/03/21 05:59:39;;;;;;;11.05;7.10;;;230.40;2201.60;;;;;;5011548;28;20034;-70
2024/03/21 06:02:05;;;;;;;12.43;9.93;;;205.10;2252.80;;;;;;5010010;28;20026;-70
2024/03/21 06:04:31;;;;;;;13.02;8.40;;;204.80;2252.80;;;;;;5010003;28;20072;-69
2024/03/21 06:06:56;;;;;;;12.20;7.68;;;204.90;2252.80;;;;;;5010113;28;20193;-70
2024/03/21 06:09:24;;;;;;;11.50;7.47;;;282.00;2099.20;;;;;;5009869;28;20030;-69
2024/03/21 06:11:50;;;;;;;10.27;7.10;;;358.70;1868.80;;;;;;5010226;28;20418;-71
2024/03/21 06:14:16;;;;;;;11.15;7.38;;;409.90;1689.60;;;;;;5009508;28;20112;-70
2024/03/21 06:16:42;;;;;;;11.63;8.43;;;460.80;1587.20;;;;;;5005178;28;20026;-78
2024/03/21 06:19:08;;;;;;;9.80;7.47;;;486.80;1484.80;;;;;;5012794;28;20101;-70
2024/03/21 06:21:34;;;;;;;12.65;7.32;;;537.60;1433.60;;;;;;5003624;28;20033;-77
2024/03/21 06:24:01;;;;;;;11.43;8.65;;;538.40;1382.40;;;;;;5004392;28;20033;-72
2024/03/21 06:26:26;;;;;;;10.75;8.23;;;563.40;1382.40;;;;;;5009463;28;20030;-70
2024/03/21 06:28:52;;;;;;;11.88;8.18;;;589.10;1305.60;;;;;;5009690;28;20472;-71
2024/03/21 06:31:19;;;;;;;13.80;10.35;;;614.50;1254.40;;;;;;5011437;28;20045;-72
2024/03/21 06:33:45;;;;;;;15.48;13.13;;;640.60;1177.60;;;;;;4996496;28;20026;-71
2024/03/21 06:36:10;;;;;;;45.60;38.38;;;665.60;1177.60;;;;;;5010190;28;20100;-71
2024/03/21 06:38:36;;;;;;;69.32;59.58;;;666.40;1152.00;;;;;;5009182;28;20112;-71
2024/03/21 06:41:03;;;;;;;71.28;60.15;;;691.40;1126.40;;;;;;5009933;28;20030;-78
2024/03/21 06:43:29;;;;;;;35.80;30.35;;;666.20;1126.40;;;;;;5009373;28;20140;-71
2024/03/21 06:45:55;;;;;;;43.78;36.15;;;665.60;1152.00;;;;;;5009279;28;20025;-72
2024/03/21 06:48:22;;;;;;;48.05;39.60;;;665.60;1126.40;;;;;;5009419;28;20105;-71
2024/03/21 06:50:49;;;;;;;47.05;39.00;;;640.80;1126.40;;;;;;5009568;28;20068;-72
2024/03/21 06:53:15;;;;;;;53.85;40.20;;;665.60;1152.00;;;;;;5009366;28;20460;-72
2024/03/21 06:55:40;;;;;;;46.67;40.15;;;691.20;1100.80;;;;;;5009930;28;20084;-72
2024/03/21 06:58:07;;;;;;;46.20;39.20;;;666.30;1100.80;;;;;;5009062;28;20376;-72
2024/03/21 07:00:32;;;;;;;53.65;46.90;;;691.30;1100.80;;;;;;5009171;28;20136;-72
2024/03/21 07:02:59;;;;;;;55.70;47.60;;;691.70;1075.20;;;;;;5009511;28;20109;-78
2024/03/21 07:05:25;;;;;;;50.55;44.22;;;717.70;1075.20;;;;;;5009222;28;20025;-72
2024/03/21 07:07:55;;;;;;;49.70;42.20;;;743.30;1049.60;;;;;;5009272;28;20079;-74
2024/03/21 07:10:21;;;;;;;46.42;40.67;;;768.70;1024.00;;;;;;5009359;28;20044;-79
2024/03/21 07:12:48;;;;;;;42.65;37.65;;;794.20;1024.00;;;;;;5008920;28;20105;-72
2024/03/21 07:15:15;;;;;;;41.38;36.22;;;819.50;972.80;;;;;;5009373;28;20579;-71
2024/03/21 07:17:42;;;;;;;50.15;43.22;;;819.40;972.80;;;;;;5009198;28;20484;-73
2024/03/21 07:20:11;;;;;;;72.93;61.92;;;819.60;972.80;;;;;;5009030;28;20057;-72
2024/03/21 07:22:40;;;;;;;141.10;120.70;;;844.80;998.40;;;;;;5007175;28;20858;-75
2024/03/21 07:25:07;;;;;;;75.90;68.00;;;845.60;947.20;;;;;;5001425;28;20101;-77
2024/03/21 07:27:33;;;;;;;76.95;68.75;;;870.80;921.60;;;;;;5009353;28;20065;-72
2024/03/21 07:29:59;;;;;;;55.22;49.53;;;871.30;896.00;;;;;;5008385;28;20057;-78
2024/03/21 07:32:25;;;;;;;62.55;56.22;;;896.20;896.00;;;;;;5008943;28;20034;-73
2024/03/21 07:34:51;;;;;;;67.35;60.15;;;870.50;896.00;;;;;;5009097;28;20033;-73
2024/03/21 07:37:17;;;;;;;52.42;46.80;;;870.70;896.00;;;;;;5009515;28;20121;-72
2024/03/21 07:39:42;;;;;;;49.95;40.38;;;870.50;896.00;;;;;;5012824;28;20041;-73
2024/03/21 07:42:09;;;;;;;45.70;39.92;;;845.50;896.00;;;;;;5004792;28;20026;-73
2024/03/21 07:44:35;;;;;;;36.53;32.30;;;845.20;921.60;;;;;;4999009;28;20030;-72
2024/03/21 07:47:00;;;;;;;45.70;39.70;;;845.10;896.00;;;;;;4998691;28;20436;-72
2024/03/21 07:49:26;;;;;;;40.90;35.35;;;844.80;921.60;;;;;;5031468;28;20037;-72
2024/03/21 07:51:52;;;;;;;35.28;31.25;;;870.50;896.00;;;;;;5030226;28;20025;-72
2024/03/21 07:54:18;;;;;;;32.05;28.75;;;845.50;896.00;;;;;;5016902;28;20127;-71
2024/03/21 07:56:44;;;;;;;30.63;27.42;;;845.10;896.00;;;;;;5019288;28;20037;-73
2024/03/21 07:59:10;;;;;;;30.00;26.60;;;845.70;896.00;;;;;;5020400;28;20025;-73
2024/03/21 08:01:36;;;;;;;30.40;27.20;;;870.70;870.40;;;;;;5014773;28;20019;-74
2024/03/21 08:04:04;;;;;;;22.67;20.35;;;896.10;870.40;;;;;;5005538;28;20052;-73
2024/03/21 08:06:30;;;;;;;23.70;21.23;;;921.90;844.80;;;;;;5031717;28;20021;-73
2024/03/21 08:08:57;;;;;;;21.80;19.55;;;947.40;819.20;;;;;;5004634;28;20026;-74
2024/03/21 08:11:23;;;;;;;20.13;18.23;;;896.90;819.20;;;;;;5004594;28;20173;-72
2024/03/21 08:13:49;;;;;;;23.17;18.33;;;896.80;819.20;;;;;;5026388;28;20175;-72
2024/03/21 08:16:14;;;;;;;24.63;20.77;;;871.30;844.80;;;;;;5015553;28;20471;-72
2024/03/21 08:18:40;;;;;;;14.32;12.38;;;896.90;844.80;;;;;;5011459;28;20026;-75
2024/03/21 08:21:06;;;;;;;13.73;12.32;;;921.60;819.20;;;;;;5020191;28;20373;-73
2024/03/21 08:23:32;;;;;;;14.70;12.88;;;922.30;819.20;;;;;;5011808;28;20017;-72
2024/03/21 08:26:04;;;;;;;17.45;14.77;;;947.50;793.60;;;;;;5007165;28;20030;-73
2024/03/21 08:28:31;;;;;;;20.08;17.98;;;973.20;793.60;;;;;;5012006;28;20472;-72
2024/03/21 08:30:57;;;;;;;12.25;11.00;;;973.50;768.00;;;;;;5011614;28;20096;-73
2024/03/21 08:33:23;;;;;;;13.13;11.82;;;973.70;768.00;;;;;;5019057;28;20034;-72
2024/03/21 08:35:50;;;;;;;8.93;8.05;;;973.70;768.00;;;;;;5012142;28;20025;-73
2024/03/21 08:38:16;;;;;;;10.48;9.43;;;998.80;768.00;;;;;;5011552;28;20037;-75
2024/03/21 08:40:54;;;;;;;8.88;8.02;;;998.50;768.00;;;;;;5011267;28;20041;-73
2024/03/21 08:43:21;;;;;;;34.88;31.25;;;973.70;768.00;;;;;;5011709;28;20112;-72
2024/03/21 08:45:48;;;;;;;56.08;50.58;;;973.30;793.60;;;;;;5012877;28;20439;-73
2024/03/21 08:48:15;;;;;;;19.77;17.75;;;973.40;768.00;;;;;;5003193;28;20026;-76
2024/03/21 08:50:44;;;;;;;25.52;22.80;;;947.40;768.00;;;;;;5013811;28;20014;-73
2024/03/21 08:53:10;;;;;;;22.42;18.30;;;922.40;793.60;;;;;;5021630;28;20113;-72
2024/03/21 08:55:36;;;;;;;23.73;17.05;;;896.50;819.20;;;;;;5011381;28;20216;-72
2024/03/21 08:58:04;;;;;;;24.83;21.83;;;870.50;870.40;;;;;;5011395;28;20084;-72
2024/03/21 09:00:32;;;;;;;35.25;29.25;;;845.00;896.00;;;;;;5011236;28;20041;-74
2024/03/21 09:02:59;;;;;;;18.00;15.73;;;819.40;896.00;;;;;;5011454;28;20419;-73
2024/03/21 09:05:25;;;;;;;27.02;23.45;;;768.40;921.60;;;;;;4998684;28;20041;-72
2024/03/21 09:07:51;;;;;;;23.90;20.40;;;742.60;972.80;;;;;;5011310;28;20022;-72
2024/03/21 09:10:17;;;;;;;19.95;17.92;;;717.10;998.40;;;;;;5010960;28;20188;-73
2024/03/21 09:12:43;;;;;;;35.03;28.42;;;666.40;998.40;;;;;;5011386;28;20034;-72
2024/03/21 09:15:13;;;;;;;18.65;13.93;;;665.60;1049.60;;;;;;5010650;28;20037;-79
2024/03/21 09:17:40;;;;;;;13.15;10.25;;;640.10;972.80;;;;;;5011111;28;20352;-73
2024/03/21 09:20:07;;;;;;;9.50;8.50;;;614.90;972.80;;;;;;5010790;28;20432;-72
2024/03/21 09:22:34;;;;;;;8.77;7.43;;;614.70;998.40;;;;;;5011120;28;20026;-71
2024/03/21 09:25:01;;;;;;;8.82;7.85;;;589.70;998.40;;;;;;5011161;28;20096;-72
2024/03/21 09:27:26;;;;;;;6.75;6.07;;;589.30;1024.00;;;;;;5010686;28;20046;-72
2024/03/21 09:29:52;;;;;;;9.57;8.38;;;589.00;1024.00;;;;;;5010828;28;20123;-72
2024/03/21 09:32:19;;;;;;;10.30;6.28;;;564.00;1049.60;;;;;;5010699;28;20057;-71
2024/03/21 09:34:51;;;;;;;9.25;5.68;;;563.40;1075.20;;;;;;5010731;28;20148;-72
2024/03/21 09:37:19;;;;;;;22.88;10.32;;;563.30;1126.40;;;;;;5010852;28;20045;-72
2024/03/21 09:39:45;;;;;;;14.10;10.25;;;563.20;1100.80;;;;;;5010699;28;20467;-72
2024/03/21 09:42:15;;;;;;;6.85;4.72;;;538.40;1075.20;;;;;;5010465;28;20022;-72
2024/03/21 09:44:46;;;;;;;11.43;8.65;;;538.00;1100.80;;;;;;5010497;28;20018;-72
2024/03/21 09:47:14;;;;;;;19.30;11.40;;;538.00;1075.20;;;;;;5010506;28;20022;-72
2024/03/21 09:49:40;;;;;;;9.68;6.50;;;538.00;1075.20;;;;;;5010822;28;20368;-73
2024/03/21 09:52:08;;;;;;;7.35;5.68;;;538.00;1075.20;;;;;;5010479;28;20014;-74
2024/03/21 09:54:35;;;;;;;9.80;7.97;;;537.80;1126.40;;;;;;5007764;28;20029;-71
2024/03/21 09:57:01;;;;;;;12.70;6.95;;;537.60;1100.80;;;;;;5022461;28;20018;-71
2024/03/21 09:59:27;;;;;;;6.97;5.38;;;537.60;1100.80;;;;;;5016639;28;20030;-71
2024/03/21 10:01:52;;;;;;;9.88;7.25;;;512.90;1075.20;;;;;;5029358;28;20033;-71
2024/03/21 10:04:18;;;;;;;8.93;5.63;;;512.90;1100.80;;;;;;5021023;28;20116;-71
2024/03/21 10:06:48;;;;;;;6.75;5.45;;;537.70;1126.40;;;;;;5010252;28;20100;-72
2024/03/21 10:09:15;;;;;;;10.07;6.78;;;512.80;1075.20;;;;;;5021044;28;20026;-75
2024/03/21 10:11:45;;;;;;;13.60;8.43;;;512.90;1100.80;;;;;;5010659;28;20025;-72
2024/03/21 10:14:13;;;;;;;8.90;6.82;;;537.60;1152.00;;;;;;5011430;28;20380;-72
2024/03/21 10:16:42;;;;;;;8.60;5.25;;;512.90;1100.80;;;;;;5026340;28;20440;-74
2024/03/21 10:19:11;;;;;;;6.22;5.15;;;512.90;1100.80;;;;;;5021519;28;20017;-72
2024/03/21 10:21:37;;;;;;;8.30;6.07;;;512.90;1100.80;;;;;;5022823;28;20018;-72
2024/03/21 10:24:04;;;;;;;13.80;10.95;;;512.70;1100.80;;;;;;5009967;28;20026;-71
2024/03/21 10:26:31;;;;;;;10.70;8.15;;;512.70;1100.80;;;;;;4999514;28;20053;-71
2024/03/21 10:28:57;;;;;;;12.55;7.80;;;512.30;1100.80;;;;;;5019918;28;20025;-72
2024/03/21 10:31:24;;;;;;;9.80;5.80;;;512.30;1126.40;;;;;;5008590;28;20132;-72
2024/03/21 10:33:54;;;;;;;9.73;7.20;;;512.20;1126.40;;;;;;5009748;28;20032;-73
2024/03/21 10:36:21;;;;;;;9.57;6.68;;;512.30;1100.80;;;;;;5004533;28;20018;-72
2024/03/21 10:38:47;;;;;;;7.78;4.90;;;512.50;1075.20;;;;;;5014256;28;20037;-72
2024/03/21 10:41:25;;;;;;;6.03;4.60;;;512.50;1152.00;;;;;;5009843;28;20026;-72
2024/03/21 10:44:00;;;;;;;6.90;4.70;;;512.50;1152.00;;;;;;5009547;28;20115;-72
2024/03/21 10:46:29;;;;;;;12.52;9.10;;;512.50;1126.40;;;;;;5009378;28;20026;-74
2024/03/21 10:49:00;;;;;;;10.25;8.02;;;512.50;1100.80;;;;;;5009295;28;20026;-72
2024/03/21 10:51:25;;;;;;;18.95;13.50;;;512.40;1100.80;;;;;;5009680;28;20157;-72
2024/03/21 10:53:59;;;;;;;9.93;7.60;;;512.30;1100.80;;;;;;5009355;28;20292;-71
2024/03/21 10:56:41;;;;;;;14.70;8.25;;;512.00;1100.80;;;;;;5009754;28;20520;-69
2024/03/21 10:59:15;;;;;;;7.63;4.67;;;487.30;1126.40;;;;;;4998185;28;20014;-69
2024/03/21 11:01:41;;;;;;;;;;;487.30;1152.00;;;;;;5009752;28;20776;-70
2024/03/21 11:04:12;;;;;;;6.25;5.40;;;512.20;1152.00;;;;;;5009250;28;19928;-69
2024/03/21 11:06:42;;;;;;;7.05;6.00;;;512.20;1152.00;;;;;;5009235;28;20010;-69
2024/03/21 11:09:10;;;;;;;10.23;5.70;;;512.30;1177.60;;;;;;5009394;28;20034;-68
2024/03/21 11:11:36;;;;;;;13.52;8.40;;;512.20;1126.40;;;;;;5009076;28;20026;-70
2024/03/21 11:14:03;;;;;;;19.00;11.05;;;512.20;1126.40;;;;;;5012936;28;20041;-75
2024/03/21 11:16:29;;;;;;;12.85;8.57;;;512.20;1126.40;;;;;;5013333;28;20381;-70
2024/03/21 11:18:56;;;;;;;7.50;5.38;;;512.30;1152.00;;;;;;5013422;28;20084;-71
2024/03/21 11:21:22;;;;;;;27.00;19.15;;;512.40;1177.60;;;;;;5013387;28;20033;-69
2024/03/21 11:23:48;;;;;;;15.52;9.57;;;512.40;1100.80;;;;;;5012925;28;20030;-70
2024/03/21 11:26:16;;;;;;;16.35;10.93;;;512.20;1126.40;;;;;;5013086;28;20028;-73
2024/03/21 11:28:45;;;;;;;8.68;6.25;;;487.30;1126.40;;;;;;5013285;28;20451;-69
2024/03/21 11:31:22;;;;;;;16.00;10.57;;;487.10;1126.40;;;;;;5007596;28;20187;-69
2024/03/21 11:33:48;;;;;;;20.42;13.45;;;487.00;1126.40;;;;;;5005657;28;20050;-70
2024/03/21 11:36:20;;;;;;;9.98;7.65;;;487.10;1152.00;;;;;;5007892;28;20481;-69
2024/03/21 11:38:47;;;;;;;10.13;6.82;;;487.20;1126.40;;;;;;5000407;28;20037;-69
2024/03/21 11:41:31;;;;;;;9.30;8.02;;;512.00;1177.60;;;;;;5003829;28;20461;-68
2024/03/21 11:43:58;;;;;;;8.07;5.20;;;512.10;1126.40;;;;;;5001880;28;20027;-69
2024/03/21 11:46:24;;;;;;;11.25;6.30;;;512.00;1152.00;;;;;;5024898;28;20479;-69
2024/03/21 11:49:03;;;;;;;5.63;4.60;;;487.30;1152.00;;;;;;5012656;28;20021;-70
2024/03/21 11:51:33;;;;;;;4.63;3.95;;;487.00;1152.00;;;;;;5012825;28;20036;-68
2024/03/21 11:54:05;;;;;;;6.32;4.40;;;487.10;1177.60;;;;;;5012606;28;20416;-70
2024/03/21 11:56:37;;;;;;;6.70;4.65;;;487.30;1203.20;;;;;;5012807;28;20057;-68
2024/03/21 11:59:04;;;;;;;6.00;3.92;;;487.30;1177.60;;;;;;5012392;28;20498;-69
2024/03/21 12:01:31;;;;;;;5.80;4.93;;;487.30;1177.60;;;;;;5012624;28;20044;-70
2024/03/21 12:03:57;;;;;;;8.15;4.35;;;487.30;1203.20;;;;;;4995777;28;20050;-68
2024/03/21 12:06:23;;;;;;;13.77;8.30;;;512.00;1177.60;;;;;;4994095;28;20100;-73
2024/03/21 12:08:53;;;;;;;21.13;13.23;;;512.20;1177.60;;;;;;5024518;28;20050;-70